VTBSVTCH

Guest
Details From VTBS - Bangkok Suvarnabhumi Intl
To VTCH - Mae Hong Son
Flight Number -
Tags generated
Created
Modified
Stats Distance 387 nm / 718 km
Max Altitude 34,000 ft / 10,363 m
Waypoints 5
Social Downloads 6
Likes 0
Share VATSIM

Download

Looking for another format? Having issues loading an existing format? Contact us
Advertisement - Login to hide

Notes

Basic altitude profile: - Ascent Rate: 2500ft/min - Ascent Speed: 250kts - Cruise Altitude: 35000ft - Cruise Speed: 420kts - Descent Rate: 1500ft/min - Descent Speed: 250kts Options: - Use NATs: yes - Use PACOTS: yes - Use low airways: yes - Use high airways: yes

Route

VTBS BKK A464 CMA VTCH

ID Type Via Altitude Latitude Longitude Leg Dist Tot Dist Heading (true) Name
O VTBS APT - 0 ft / 0 m 13.68046˚ 100.74751˚ - 0 nm - Bangkok Suvarnabhumi Intl
BKK VOR - 5,500 ft / 1,676 m 13.89356˚ 100.59619˚ 15 nm 15 nm 325° / 325° BANGKOK VOR-DME
BEKOD FIX A464 (AWY-LO) 34,000 ft / 10,363 m 16.35478˚ 99.77677˚ 155 nm 170 nm 342° / 342° -
CMA VOR A464 (AWY-HI) 12,800 ft / 3,901 m 18.76612˚ 98.96126˚ 152 nm 322 nm 342° / 342° CHIANG MAI VOR-DME
O VTCH APT - 0 ft / 0 m 19.30147˚ 97.97587˚ 64 nm 387 nm 300° / 300° Mae Hong Son

Altitude Profile

Advertisement - Login to hide

Weather


0- 5 10 15 20 25 30 35+ Temperature / ° C

Clouds and Precipitation
Forecast for 2017-12-17 00:00 UTC. Updated an hour ago

Ground ~20,000 ft ~40,000 ft Winds

VTBS

Details ICAO VTBS (BKK)
Name Bangkok Suvarnabhumi Intl
Region Thailand
Timezone Asia/Bangkok (UTC+7.0)
Stats Elevation 5 ft / 2 m (AMSL)
Location 13.680456° 100.747512°
Runways 2
Magnetic Variation 0.571° W

METAR

VTBS 162200Z 07007KT 040V120 9999 SCT075 24/16 Q1015 NOSIG

Decode

TAF

TAF VTBS 161700Z 1618/1724 02005KT 9999 FEW040 BECMG 1702/1704 08010KT FEW030 BECMG 1714/1716 35005KT FEW040

Decode

Departure Runways

ID Width Length Bearing (true) Bearing (mag) Surface Threshold Offset Overrun Length
01L 200 ft / 61 m 12,194 ft / 3,717 m 14.26° 14.83° Asphalt 0 ft / 0 m 400 ft / 122 m
01R 200 ft / 61 m 13,181 ft / 4,018 m 14.19° 14.76° Asphalt 0 ft / 0 m 400 ft / 122 m
19L 200 ft / 61 m 13,181 ft / 4,018 m 194.19° 194.76° Asphalt 0 ft / 0 m 400 ft / 122 m
19R 200 ft / 61 m 12,194 ft / 3,717 m 194.26° 194.83° Asphalt 0 ft / 0 m 400 ft / 122 m

VTCH

Details ICAO VTCH (HGN)
Name Mae Hong Son
Region Thailand
Timezone Asia/Bangkok (UTC+7.0)
Stats Elevation 929 ft / 283 m (AMSL)
Location 19.301468° 97.975872°
Runways 1
Magnetic Variation 0.707° W

METAR

Not found

TAF

TAF VTCH 161700Z 1618/1718 05005KT 9999 FEW035 BECMG 1621/1623 00000KT 1000 BR BECMG 1702/1704 06005KT 9999 NSW

Decode

Destination Runways

ID Width Length Bearing (true) Bearing (mag) Surface Threshold Offset Overrun Length
11 95 ft / 29 m 6,555 ft / 1,998 m 108.02° 108.73° Asphalt 0 ft / 0 m 197 ft / 60 m
29 95 ft / 29 m 6,555 ft / 1,998 m 288.03° 288.74° Asphalt 0 ft / 0 m 0 ft / 0 m